Decoded Metar for FKKR (GAROUA in CAMEROON) (IATA:GOU) | Meteo·Mobile Aviation Weather
aviador You're here:

FKKR Decoded Metar

GAROUA in CAMEROON
Report Time2018-09-18 20:00:00
UTC Time2018-09-18 20:59:30
Flight Rules vfr VFR
Wind330° at 01 kt
W.Decomp.*RWY 27: 0.5 kt HW 0.9 kt RCW
W.Rank330° ranks 23
Current wind is below 330° avg. (5.0)
Visibility9999 m
Phenomena:N/A
Clouds:N/A
Expected CloudBase > 800 ft AGL from Temp-Dew spread
CeilingNone
Temp27°C (ISA +14)
Dew Point25°C (89% RH)
Heat Index30.6°C
QNH1011 hPa
Density Alt2,854 ft
Elevation801 ft
Report Wrong Elevation
Raw Report
METAR FKKR 182000Z 33001KT CAVOK 27/25 Q1011 NOSIG=

Extra information for FKKR:More info

Metar Taf Metar & Taf Last 4 Metars F.Rules Stats Wind Profile Meteogram Temp Stats Airport Information Weather charts Add Link Nearby VenuesMetar ALERT Operation Metar Decoded Social comments